createdAt,value
2018-11-21T00:00:23.356Z,26.27
2018-11-21T00:02:51.780Z,26.43
2018-11-21T00:05:20.206Z,26.23
2018-11-21T00:07:48.618Z,26.07
2018-11-21T00:10:17.052Z,26.37
2018-11-21T00:12:53.260Z,25.87
2018-11-21T00:15:21.947Z,26.70
2018-11-21T00:17:50.346Z,25.80
2018-11-21T00:20:18.985Z,26.40
2018-11-21T00:22:47.456Z,25.97
2018-11-21T00:25:15.875Z,25.33
2018-11-21T00:27:44.359Z,25.93
2018-11-21T00:30:14.115Z,26.63
2018-11-21T00:32:42.856Z,25.50
2018-11-21T00:35:11.895Z,25.73
2018-11-21T00:37:40.316Z,26.00
2018-11-21T00:40:10.755Z,25.13
2018-11-21T00:42:39.169Z,26.63
2018-11-21T00:45:08.621Z,25.93
2018-11-21T00:47:37.103Z,25.83
2018-11-21T00:50:06.311Z,25.13
2018-11-21T00:52:35.041Z,26.07
2018-11-21T00:55:03.488Z,26.57
2018-11-21T00:57:32.102Z,26.47
2018-11-21T01:00:00.503Z,25.63
2018-11-21T01:02:28.946Z,25.87
2018-11-21T01:04:57.361Z,25.47
2018-11-21T01:07:25.779Z,26.53
2018-11-21T01:09:54.269Z,27.70
2018-11-21T01:12:22.976Z,27.17
2018-11-21T01:14:51.408Z,26.20
2018-11-21T01:17:19.940Z,27.13
2018-11-21T01:19:48.789Z,28.30
2018-11-21T01:22:17.242Z,26.27
2018-11-21T01:24:45.675Z,26.27
2018-11-21T01:27:14.117Z,25.87
2018-11-21T01:29:42.537Z,26.60
2018-11-21T01:32:10.941Z,27.23
2018-11-21T01:34:39.354Z,26.37
2018-11-21T01:37:07.844Z,26.70
2018-11-21T01:39:36.217Z,25.97
2018-11-21T01:42:04.955Z,25.97
2018-11-21T01:44:33.390Z,27.50
2018-11-21T01:47:01.807Z,28.70
2018-11-21T01:49:30.340Z,28.37
2018-11-21T01:51:58.760Z,28.53
2018-11-21T01:54:27.246Z,29.37
2018-11-21T01:56:56.178Z,29.47
2018-11-21T01:59:24.575Z,29.73
2018-11-21T02:01:52.994Z,28.03
2018-11-21T02:04:21.404Z,28.00
2018-11-21T02:06:49.836Z,27.53
2018-11-21T02:09:18.244Z,28.50
2018-11-21T02:11:46.689Z,26.37
2018-11-21T02:14:15.161Z,27.27
2018-11-21T02:16:43.572Z,26.70
2018-11-21T02:19:11.991Z,27.37
2018-11-21T02:21:40.529Z,25.73
2018-11-21T02:24:08.929Z,27.90
2018-11-21T02:26:37.408Z,27.83
2018-11-21T02:29:06.367Z,29.37
2018-11-21T02:31:34.796Z,28.70
2018-11-21T02:34:03.196Z,28.57
2018-11-21T02:36:31.855Z,28.73
2018-11-21T02:39:00.269Z,28.60
2018-11-21T02:41:28.708Z,29.17
2018-11-21T02:43:57.127Z,28.70
2018-11-21T02:46:25.578Z,28.40
2018-11-21T02:48:54.008Z,29.63
2018-11-21T02:51:22.410Z,28.93
2018-11-21T02:53:50.882Z,27.43
2018-11-21T02:56:19.283Z,30.10
2018-11-21T02:58:47.709Z,29.23
2018-11-21T03:01:16.116Z,29.57
2018-11-21T03:03:44.548Z,27.50
2018-11-21T03:06:12.961Z,29.37
2018-11-21T03:08:41.647Z,27.73
2018-11-21T03:11:10.068Z,27.53
2018-11-21T03:13:38.499Z,29.03
2018-11-21T03:16:06.949Z,27.40
2018-11-21T03:18:35.349Z,28.70
2018-11-21T03:21:03.778Z,27.10
2018-11-21T03:23:32.187Z,27.83
2018-11-21T03:26:01.137Z,28.77
2018-11-21T03:28:29.626Z,29.13
2018-11-21T03:30:58.261Z,29.43
2018-11-21T03:33:26.695Z,28.87
2018-11-21T03:35:55.430Z,28.47
2018-11-21T03:38:23.851Z,28.90
2018-11-21T03:40:52.253Z,27.97
2018-11-21T03:43:20.662Z,30.33
2018-11-21T03:45:49.216Z,30.80
2018-11-21T03:48:17.631Z,28.20
2018-11-21T03:50:46.088Z,27.73
2018-11-21T03:53:14.507Z,28.67
2018-11-21T03:55:42.943Z,28.23
2018-11-21T03:58:11.333Z,28.10
2018-11-21T04:00:39.809Z,30.80
2018-11-21T04:03:08.247Z,28.63
2018-11-21T04:05:36.687Z,29.97
2018-11-21T04:08:05.131Z,29.93
2018-11-21T04:10:33.582Z,30.63
2018-11-21T04:13:02.025Z,30.13
2018-11-21T04:15:30.645Z,30.37
2018-11-21T04:17:59.166Z,32.17
2018-11-21T04:20:27.571Z,31.67
2018-11-21T04:22:55.998Z,31.13
2018-11-21T04:25:24.399Z,30.23
2018-11-21T04:27:52.893Z,30.53
2018-11-21T04:30:21.334Z,32.53
2018-11-21T04:32:49.804Z,31.17
2018-11-21T04:35:18.232Z,33.00
2018-11-21T04:37:46.688Z,31.53
2018-11-21T04:40:15.174Z,31.35
2018-11-21T04:42:43.594Z,31.30
2018-11-21T04:45:12.037Z,31.87
2018-11-21T04:47:40.553Z,31.23
2018-11-21T04:50:09.258Z,33.53
2018-11-21T04:52:37.731Z,32.57
2018-11-21T04:55:07.570Z,32.10
2018-11-21T04:57:36.045Z,31.50
2018-11-21T05:00:05.986Z,33.57
2018-11-21T05:02:34.453Z,33.00
2018-11-21T05:05:02.928Z,30.33
2018-11-21T05:07:31.441Z,32.00
2018-11-21T05:10:00.137Z,30.10
2018-11-21T05:12:28.583Z,30.60
2018-11-21T05:14:57.012Z,30.23
2018-11-21T05:17:25.377Z,29.73
2018-11-21T05:19:53.824Z,30.00
2018-11-21T05:22:22.293Z,27.63
2018-11-21T05:24:50.723Z,28.10
2018-11-21T05:27:19.249Z,26.20
2018-11-21T05:29:47.660Z,25.23
2018-11-21T05:32:16.110Z,26.37
2018-11-21T05:34:44.821Z,24.13
2018-11-21T05:37:13.250Z,26.53
2018-11-21T05:39:41.666Z,25.00
2018-11-21T05:42:10.186Z,24.50
2018-11-21T05:44:38.589Z,23.07
2018-11-21T05:47:07.025Z,22.67
2018-11-21T05:49:35.437Z,24.50
2018-11-21T05:52:03.892Z,23.90
2018-11-21T05:54:32.344Z,23.07
2018-11-21T05:57:00.918Z,24.27
2018-11-21T05:59:29.661Z,23.97
2018-11-21T06:01:58.082Z,23.57
2018-11-21T06:04:26.506Z,23.13
2018-11-21T06:06:54.913Z,24.03
2018-11-21T06:09:23.326Z,23.47
2018-11-21T06:11:51.743Z,22.37
2018-11-21T06:14:20.180Z,24.43
2018-11-21T06:16:48.604Z,25.30
2018-11-21T06:19:17.096Z,29.63
2018-11-21T06:21:45.806Z,31.77
2018-11-21T06:24:14.273Z,31.53
2018-11-21T06:26:42.720Z,30.00
2018-11-21T06:29:11.167Z,30.17
2018-11-21T06:31:39.691Z,31.70
2018-11-21T06:34:08.115Z,28.17
2018-11-21T06:36:36.535Z,28.30
2018-11-21T06:39:07.119Z,27.43
2018-11-21T06:41:35.589Z,27.73
2018-11-21T06:44:04.021Z,27.47
2018-11-21T06:46:32.463Z,26.57
2018-11-21T06:49:00.968Z,28.13
2018-11-21T06:51:31.905Z,29.77
2018-11-21T06:53:57.893Z,27.85
2018-11-21T06:56:26.331Z,29.83
2018-11-21T06:58:55.227Z,31.20
2018-11-21T07:01:23.365Z,30.47
2018-11-21T07:03:51.793Z,30.27
2018-11-21T07:06:20.239Z,30.43
2018-11-21T07:08:48.715Z,30.47
2018-11-21T07:11:17.160Z,30.43
2018-11-21T07:13:45.610Z,30.03
2018-11-21T07:16:14.032Z,28.90
2018-11-21T07:18:42.690Z,30.03
2018-11-21T07:21:11.450Z,29.80
2018-11-21T07:23:39.925Z,30.33
2018-11-21T07:26:08.672Z,29.13
2018-11-21T07:28:37.104Z,32.00
2018-11-21T07:31:05.970Z,31.97
2018-11-21T07:33:35.026Z,32.57
2018-11-21T07:36:03.476Z,30.87
2018-11-21T07:38:31.968Z,32.63
2018-11-21T07:41:00.561Z,32.57
2018-11-21T07:43:29.020Z,32.73
2018-11-21T07:45:57.589Z,32.05
2018-11-21T07:48:26.115Z,31.80
2018-11-21T07:50:54.526Z,32.77
2018-11-21T07:53:22.978Z,31.93
2018-11-21T07:55:51.416Z,32.43
2018-11-21T07:58:21.915Z,31.07
2018-11-21T08:01:28.984Z,29.87
2018-11-21T08:04:22.301Z,29.63
2018-11-21T08:07:09.940Z,29.70
2018-11-21T08:09:44.509Z,31.03
2018-11-21T08:12:33.329Z,31.07
2018-11-21T08:15:27.138Z,34.93
2018-11-21T08:18:13.796Z,34.53
2018-11-21T08:20:54.696Z,38.20
2018-11-21T08:23:35.340Z,55.97
2018-11-21T08:26:35.048Z,70.37
2018-11-21T08:29:03.499Z,68.73
2018-11-21T08:31:31.933Z,83.77
2018-11-21T08:34:00.393Z,70.30
2018-11-21T08:36:28.833Z,60.90
2018-11-21T08:38:57.269Z,46.83
2018-11-21T08:41:25.682Z,41.03
2018-11-21T08:46:22.543Z,37.53
2018-11-21T08:48:51.028Z,35.63
2018-11-21T08:51:19.486Z,33.77
2018-11-21T08:53:47.918Z,34.10
2018-11-21T08:56:16.418Z,34.93
2018-11-21T08:58:44.838Z,32.60
2018-11-21T09:01:13.241Z,31.70
2018-11-21T09:03:41.705Z,33.47
2018-11-21T09:06:10.122Z,31.43
2018-11-21T09:08:38.586Z,32.23
2018-11-21T09:11:07.034Z,33.03
2018-11-21T09:13:35.496Z,30.73
2018-11-21T09:16:04.031Z,31.10
2018-11-21T09:18:32.495Z,32.33
2018-11-21T09:21:00.864Z,30.43
2018-11-21T09:23:29.274Z,31.53
2018-11-21T09:25:57.713Z,31.07
2018-11-21T09:28:26.242Z,31.37
2018-11-21T09:30:54.702Z,31.87
2018-11-21T09:33:23.128Z,30.37
2018-11-21T09:35:51.551Z,32.20
2018-11-21T09:38:19.965Z,31.77
2018-11-21T09:40:48.492Z,30.93
2018-11-21T09:43:16.989Z,31.10
2018-11-21T09:45:45.431Z,33.10
2018-11-21T09:48:13.885Z,32.47
2018-11-21T09:50:42.344Z,32.20
2018-11-21T09:53:10.779Z,32.27
2018-11-21T09:55:40.546Z,32.40
2018-11-21T09:58:07.623Z,31.10
2018-11-21T10:01:12.569Z,31.27
2018-11-21T10:03:41.384Z,31.77
2018-11-21T10:06:18.157Z,30.97
2018-11-21T10:08:48.391Z,30.37
2018-11-21T10:11:17.160Z,31.63
2018-11-21T10:13:45.589Z,29.07
2018-11-21T10:16:14.021Z,29.50
2018-11-21T10:18:43.953Z,30.13
2018-11-21T10:21:14.148Z,29.93
2018-11-21T10:23:42.580Z,31.60
2018-11-21T10:26:10.975Z,29.60
2018-11-21T10:28:39.722Z,31.27
2018-11-21T10:31:08.115Z,30.40
2018-11-21T10:33:36.549Z,30.73
2018-11-21T10:36:05.044Z,30.70
2018-11-21T10:38:33.480Z,30.70
2018-11-21T10:41:01.887Z,31.20
2018-11-21T10:43:30.809Z,31.23
2018-11-21T10:45:59.251Z,32.10
2018-11-21T10:48:27.666Z,32.83
2018-11-21T10:50:56.090Z,33.73
2018-11-21T10:53:24.594Z,32.87
2018-11-21T10:55:53.017Z,30.47
2018-11-21T10:58:21.512Z,31.23
2018-11-21T11:01:07.732Z,32.20
2018-11-21T11:03:41.588Z,29.90
2018-11-21T11:06:38.204Z,29.70
2018-11-21T11:09:28.154Z,29.50
2018-11-21T11:12:21.314Z,30.53
2018-11-21T11:15:18.028Z,30.00
2018-11-21T11:18:11.152Z,27.60
2018-11-21T11:20:57.389Z,28.47
2018-11-21T11:23:38.855Z,28.00
2018-11-21T11:26:32.555Z,25.93
2018-11-21T11:29:20.164Z,25.77
2018-11-21T11:32:16.847Z,27.37
2018-11-21T11:35:05.133Z,31.23
2018-11-21T11:37:51.536Z,30.43
2018-11-21T11:40:36.740Z,29.20
2018-11-21T11:43:23.332Z,28.17
2018-11-21T11:46:10.881Z,27.87
2018-11-21T11:49:07.514Z,26.97
2018-11-21T11:51:48.086Z,28.07
2018-11-21T11:54:33.720Z,26.23
2018-11-21T11:57:14.980Z,27.30
2018-11-21T12:00:08.529Z,25.60
2018-11-21T12:02:56.524Z,27.97
2018-11-21T12:05:49.858Z,26.87
2018-11-21T12:08:55.753Z,26.10
2018-11-21T12:11:51.931Z,25.60
2018-11-21T12:14:58.135Z,25.77
2018-11-21T12:17:44.499Z,25.37
2018-11-21T12:20:32.065Z,25.37
2018-11-21T12:23:19.667Z,25.10
2018-11-21T12:26:19.572Z,25.13
2018-11-21T12:29:07.157Z,24.57
2018-11-21T12:31:53.280Z,24.93
2018-11-21T12:34:47.091Z,25.97
2018-11-21T12:37:34.688Z,25.87
2018-11-21T12:40:20.830Z,24.17
2018-11-21T12:43:07.628Z,25.40
2018-11-21T12:46:00.737Z,24.77
2018-11-21T12:48:47.273Z,25.43
2018-11-21T12:51:53.070Z,25.97
2018-11-21T12:54:52.649Z,24.47
2018-11-21T12:57:46.306Z,23.23
2018-11-21T13:00:23.297Z,22.83
2018-11-21T13:03:11.066Z,22.40
2018-11-21T13:06:01.458Z,24.03
2018-11-21T13:08:47.786Z,22.90
2018-11-21T13:11:34.134Z,22.07
2018-11-21T13:14:30.577Z,22.70
2018-11-21T13:17:10.923Z,22.70
2018-11-21T13:20:13.596Z,21.93
2018-11-21T13:23:00.168Z,22.30
2018-11-21T13:26:02.868Z,21.80
2018-11-21T13:28:42.856Z,21.93
2018-11-21T13:31:33.420Z,22.80
2018-11-21T13:34:13.177Z,23.00
2018-11-21T13:36:58.289Z,22.67
2018-11-21T13:39:55.074Z,21.40
2018-11-21T13:42:30.599Z,22.80
2018-11-21T13:45:36.612Z,23.50
2018-11-21T13:48:24.602Z,23.50
2018-11-21T13:51:17.838Z,23.97
2018-11-21T13:54:17.353Z,22.07
2018-11-21T13:56:46.809Z,23.80
2018-11-21T13:59:15.221Z,22.07
2018-11-21T14:01:43.647Z,22.80
2018-11-21T14:04:12.076Z,21.57
2018-11-21T14:06:40.660Z,22.77
2018-11-21T14:09:10.521Z,21.23
2018-11-21T14:11:39.278Z,22.47
2018-11-21T14:14:08.450Z,22.30
2018-11-21T14:16:37.020Z,20.70
2018-11-21T14:19:05.659Z,21.67
2018-11-21T14:21:34.278Z,21.87
2018-11-21T14:24:02.703Z,21.40
2018-11-21T14:26:31.159Z,22.93
2018-11-21T14:29:00.026Z,24.20
2018-11-21T14:31:28.433Z,23.00
2018-11-21T14:33:56.876Z,25.57
2018-11-21T14:36:25.312Z,22.93
2018-11-21T14:38:53.728Z,22.77
2018-11-21T14:41:22.327Z,23.13
2018-11-21T14:43:50.777Z,22.80
2018-11-21T14:46:19.191Z,23.73
2018-11-21T14:48:47.633Z,23.67
2018-11-21T14:51:16.066Z,23.27
2018-11-21T14:53:44.487Z,23.03
2018-11-21T14:56:12.932Z,23.23
2018-11-21T14:58:41.388Z,22.80
2018-11-21T15:01:09.976Z,22.27
2018-11-21T15:03:38.441Z,23.97
2018-11-21T15:06:06.978Z,22.73
2018-11-21T15:08:35.554Z,23.00
2018-11-21T15:11:03.996Z,23.00
2018-11-21T15:13:32.435Z,25.17
2018-11-21T15:16:00.825Z,25.73
2018-11-21T15:18:29.242Z,25.90
2018-11-21T15:20:57.671Z,24.70
2018-11-21T15:23:26.423Z,24.87
2018-11-21T15:25:55.132Z,24.90
2018-11-21T15:28:23.548Z,26.83
2018-11-21T15:30:51.941Z,26.23
2018-11-21T15:33:20.396Z,26.13
2018-11-21T15:35:48.876Z,26.30
2018-11-21T15:38:17.724Z,27.30
2018-11-21T15:40:47.070Z,27.03
2018-11-21T15:43:14.558Z,29.93
2018-11-21T15:45:46.585Z,28.63
2018-11-21T15:48:14.998Z,28.43
2018-11-21T15:50:43.493Z,29.10
2018-11-21T15:53:11.981Z,28.23
2018-11-21T15:55:40.396Z,26.40
2018-11-21T15:58:08.967Z,26.17
2018-11-21T16:00:38.039Z,26.13
2018-11-21T16:03:07.784Z,24.60
2018-11-21T16:05:36.544Z,25.40
2018-11-21T16:08:05.241Z,25.77
2018-11-21T16:10:41.435Z,28.13
2018-11-21T16:13:10.195Z,27.00
2018-11-21T16:15:43.753Z,25.57
2018-11-21T16:18:12.667Z,26.80
2018-11-21T16:20:41.182Z,25.17
2018-11-21T16:23:09.885Z,24.73
2018-11-21T16:25:38.383Z,25.10
2018-11-21T16:28:07.023Z,29.30
2018-11-21T16:30:35.481Z,34.33
2018-11-21T16:33:03.945Z,30.83
2018-11-21T16:35:32.527Z,28.93
2018-11-21T16:38:00.997Z,28.27
2018-11-21T16:40:30.829Z,27.40
2018-11-21T16:42:59.994Z,26.60
2018-11-21T16:45:32.884Z,27.30
2018-11-21T16:48:01.372Z,25.93
2018-11-21T16:50:29.913Z,27.70
2018-11-21T16:52:58.409Z,30.63
2018-11-21T16:55:27.413Z,28.67
2018-11-21T16:57:56.921Z,28.07
2018-11-21T17:00:26.781Z,26.63
2018-11-21T17:02:55.310Z,27.83
2018-11-21T17:05:24.801Z,27.83
2018-11-21T17:07:53.268Z,27.10
2018-11-21T17:10:26.215Z,25.53
2018-11-21T17:12:54.633Z,26.73
2018-11-21T17:15:27.700Z,24.63
2018-11-21T17:17:56.281Z,26.67
2018-11-21T17:20:26.685Z,25.20
2018-11-21T17:22:56.375Z,24.13
2018-11-21T17:25:26.906Z,26.70
2018-11-21T17:27:55.336Z,27.73
2018-11-21T17:30:24.245Z,25.27
2018-11-21T17:32:52.742Z,24.83
2018-11-21T17:35:21.667Z,26.73
2018-11-21T17:37:50.447Z,30.57
2018-11-21T17:40:24.957Z,27.20
2018-11-21T17:42:53.659Z,29.67
2018-11-21T17:45:22.216Z,29.63
2018-11-21T17:47:50.659Z,29.23
2018-11-21T17:50:20.370Z,28.50
2018-11-21T17:52:49.655Z,30.13
2018-11-21T17:55:20.046Z,29.73
2018-11-21T17:57:48.429Z,30.27
2018-11-21T18:00:21.775Z,28.60
2018-11-21T18:02:50.272Z,31.90
2018-11-21T18:05:20.439Z,31.07
2018-11-21T18:07:48.914Z,30.37
2018-11-21T18:10:18.719Z,32.30
2018-11-21T18:12:47.495Z,30.67
2018-11-21T18:15:16.800Z,30.40
2018-11-21T18:17:46.304Z,33.00
2018-11-21T18:20:15.211Z,32.37
2018-11-21T18:22:44.296Z,31.60
2018-11-21T18:25:15.238Z,30.60
2018-11-21T18:27:43.943Z,31.20
2018-11-21T18:30:15.107Z,33.73
2018-11-21T18:32:44.382Z,31.77
2018-11-21T18:35:14.330Z,29.90
2018-11-21T18:37:43.600Z,32.50
2018-11-21T18:40:14.337Z,31.50
2018-11-21T18:42:42.768Z,31.70
2018-11-21T18:45:14.345Z,33.50
2018-11-21T18:47:43.575Z,30.87
2018-11-21T18:50:13.449Z,31.43
2018-11-21T18:52:42.188Z,31.77
2018-11-21T18:55:13.293Z,29.70
2018-11-21T18:58:14.961Z,32.00
2018-11-21T19:00:45.335Z,30.13
2018-11-21T19:03:13.804Z,31.87
2018-11-21T19:05:42.235Z,29.83
2018-11-21T19:08:10.759Z,30.33
2018-11-21T19:10:39.323Z,30.17
2018-11-21T19:13:07.896Z,30.20
2018-11-21T19:15:36.321Z,30.80
2018-11-21T19:18:05.026Z,30.50
2018-11-21T19:20:33.680Z,29.13
2018-11-21T19:23:02.288Z,30.87
2018-11-21T19:25:31.029Z,29.20
2018-11-21T19:28:00.152Z,29.63
2018-11-21T19:30:28.590Z,27.70
2018-11-21T19:32:57.067Z,28.97
2018-11-21T19:35:25.760Z,27.13
2018-11-21T19:37:54.290Z,26.17
2018-11-21T19:40:22.874Z,25.13
2018-11-21T19:42:51.406Z,27.13
2018-11-21T19:45:19.892Z,28.33
2018-11-21T19:47:48.699Z,28.17
2018-11-21T19:50:17.959Z,29.47
2018-11-21T19:52:47.032Z,28.63
2018-11-21T19:55:17.098Z,30.97
2018-11-21T19:57:45.978Z,31.60
2018-11-21T20:00:22.940Z,31.37
2018-11-21T20:02:51.774Z,30.17
2018-11-21T20:05:20.218Z,32.17
2018-11-21T20:07:48.902Z,36.17
2018-11-21T20:10:18.107Z,33.47
2018-11-21T20:12:46.597Z,35.70
2018-11-21T20:15:16.518Z,36.43
2018-11-21T20:17:46.936Z,34.73
2018-11-21T20:20:16.856Z,33.83
2018-11-21T20:22:45.692Z,34.50
2018-11-21T20:25:15.560Z,35.20
2018-11-21T20:27:44.115Z,35.60
2018-11-21T20:30:15.312Z,35.77
2018-11-21T20:32:43.976Z,35.03
2018-11-21T20:35:13.077Z,35.43
2018-11-21T20:37:42.375Z,35.40
2018-11-21T20:40:16.134Z,34.97
2018-11-21T20:42:45.277Z,34.13
2018-11-21T20:45:16.150Z,35.57
2018-11-21T20:47:44.919Z,34.67
2018-11-21T20:50:18.838Z,34.53
2018-11-21T20:52:46.147Z,32.57
2018-11-21T20:55:18.723Z,32.33
2018-11-21T20:57:47.206Z,30.97
2018-11-21T21:00:17.039Z,31.97
2018-11-21T21:02:45.721Z,30.83
2018-11-21T21:05:15.417Z,33.10
2018-11-21T21:07:44.429Z,33.23
2018-11-21T21:10:20.509Z,33.87
2018-11-21T21:12:48.975Z,33.77
2018-11-21T21:15:17.480Z,34.03
2018-11-21T21:17:47.009Z,33.87
2018-11-21T21:20:16.935Z,33.30
2018-11-21T21:22:46.205Z,32.27
2018-11-21T21:25:16.311Z,30.77
2018-11-21T21:27:44.753Z,31.13
2018-11-21T21:30:15.583Z,30.07
2018-11-21T21:32:44.681Z,30.57
2018-11-21T21:35:13.795Z,30.90
2018-11-21T21:37:42.303Z,33.33
2018-11-21T21:40:12.738Z,32.37
2018-11-21T21:42:41.779Z,33.60
2018-11-21T21:45:12.145Z,33.03
2018-11-21T21:47:41.763Z,34.73
2018-11-21T21:50:10.315Z,33.00
2018-11-21T21:52:38.753Z,32.70
2018-11-21T21:55:08.490Z,32.67
2018-11-21T21:57:36.928Z,32.03
2018-11-21T22:00:09.072Z,34.47
2018-11-21T22:02:37.492Z,31.37
2018-11-21T22:05:07.774Z,30.50
2018-11-21T22:07:36.271Z,32.43
2018-11-21T22:10:04.958Z,30.83
2018-11-21T22:12:33.432Z,29.57
2018-11-21T22:15:01.852Z,29.57
2018-11-21T22:17:30.622Z,30.13
2018-11-21T22:19:59.027Z,31.70
2018-11-21T22:22:27.458Z,30.07
2018-11-21T22:24:56.052Z,29.40
2018-11-21T22:27:24.466Z,30.33
2018-11-21T22:29:52.907Z,28.23
2018-11-21T22:32:21.449Z,27.43
2018-11-21T22:34:50.018Z,29.03
2018-11-21T22:37:18.462Z,27.90
2018-11-21T22:39:47.094Z,28.70
2018-11-21T22:42:15.648Z,29.17
2018-11-21T22:44:44.262Z,28.67
2018-11-21T22:47:12.701Z,30.37
2018-11-21T22:49:41.319Z,29.83
2018-11-21T22:52:09.733Z,29.20
2018-11-21T22:54:38.179Z,28.43
2018-11-21T22:57:06.604Z,30.70
2018-11-21T22:59:35.034Z,29.37
2018-11-21T23:02:03.553Z,30.23
2018-11-21T23:04:32.237Z,28.80
2018-11-21T23:07:00.752Z,28.03
2018-11-21T23:09:29.723Z,28.50
2018-11-21T23:11:58.479Z,27.57
2018-11-21T23:14:26.933Z,28.60
2018-11-21T23:16:55.526Z,27.77
2018-11-21T23:19:23.950Z,28.63
2018-11-21T23:21:52.351Z,29.70
2018-11-21T23:24:21.029Z,29.03
2018-11-21T23:26:49.488Z,28.80
2018-11-21T23:29:18.199Z,30.67
2018-11-21T23:31:46.721Z,28.00
2018-11-21T23:34:15.359Z,29.70
2018-11-21T23:36:43.885Z,29.60
2018-11-21T23:39:31.850Z,29.80
2018-11-21T23:42:00.274Z,28.70
